Time;durP1;ratioP1;P1;durP2;ratioP2;P2;SDS_P1;SDS_P2;PMS_P1;PMS_P2;Temp;Humidity;BMP_temperature;BMP_pressure;BME280_temperature;BME280_humidity;BME280_pressure;Samples;Min_cycle;Max_cycle;Signal;HPM_P1;HPM_P2
2023/10/04 00:00:16;;;;;;;6.78;1.70;;;;;;;;;;5016585;28;20046;-84
2023/10/04 00:02:45;;;;;;;8.32;0.90;;;;;;;;;;5018526;28;20057;-85
2023/10/04 00:05:19;;;;;;;2.40;1.13;;;;;;;;;;5012310;28;20046;-84
2023/10/04 00:07:47;;;;;;;5.10;1.45;;;;;;;;;;5012813;28;20126;-85
2023/10/04 00:10:17;;;;;;;3.95;0.98;;;;;;;;;;5012200;28;20507;-86
2023/10/04 00:12:46;;;;;;;3.92;1.00;;;;;;;;;;5037845;28;20042;-84
2023/10/04 00:15:13;;;;;;;7.80;1.60;;;;;;;;;;5008736;28;20444;-84
2023/10/04 00:17:44;;;;;;;6.60;1.17;;;;;;;;;;5014261;28;20443;-83
2023/10/04 00:20:13;;;;;;;2.53;1.00;;;;;;;;;;5009730;28;20070;-84
2023/10/04 00:22:40;;;;;;;5.82;1.17;;;;;;;;;;5010590;28;20054;-85
2023/10/04 00:25:11;;;;;;;3.78;1.13;;;;;;;;;;5010716;28;20042;-84
2023/10/04 00:27:40;;;;;;;2.88;1.38;;;;;;;;;;4996580;28;20434;-83
2023/10/04 00:30:17;;;;;;;3.03;1.20;;;;;;;;;;5008432;28;20054;-83
2023/10/04 00:32:47;;;;;;;3.67;1.42;;;;;;;;;;5014774;28;20049;-84
2023/10/04 00:35:19;;;;;;;5.65;1.20;;;;;;;;;;4974296;28;20141;-84
2023/10/04 00:37:47;;;;;;;5.75;1.10;;;;;;;;;;5011377;28;20228;-83
2023/10/04 00:40:19;;;;;;;2.47;1.30;;;;;;;;;;5012843;28;20476;-85
2023/10/04 00:42:49;;;;;;;2.67;1.00;;;;;;;;;;5023796;28;20053;-85
2023/10/04 00:45:22;;;;;;;8.00;1.38;;;;;;;;;;5029717;28;20053;-84
2023/10/04 00:47:58;;;;;;;2.60;1.10;;;;;;;;;;5027718;28;20049;-83
2023/10/04 00:50:34;;;;;;;5.60;1.20;;;;;;;;;;5031245;28;20048;-83
2023/10/04 00:53:03;;;;;;;4.25;1.20;;;;;;;;;;5027535;28;20049;-83
2023/10/04 00:55:31;;;;;;;4.38;1.33;;;;;;;;;;5012208;28;20091;-84
2023/10/04 00:57:59;;;;;;;3.53;1.30;;;;;;;;;;5023717;28;20128;-84
2023/10/04 01:00:26;;;;;;;6.32;1.83;;;;;;;;;;5011559;28;20409;-84
2023/10/04 01:02:56;;;;;;;2.55;1.33;;;;;;;;;;5012303;28;20499;-84
2023/10/04 01:05:27;;;;;;;2.90;1.40;;;;;;;;;;5011450;28;20229;-84
2023/10/04 01:07:54;;;;;;;6.63;1.45;;;;;;;;;;5034588;28;20065;-84
2023/10/04 01:10:24;;;;;;;5.63;1.45;;;;;;;;;;5011079;28;20049;-83
2023/10/04 01:12:52;;;;;;;3.35;1.30;;;;;;;;;;5011417;28;20409;-83
2023/10/04 01:15:32;;;;;;;5.00;1.33;;;;;;;;;;5006749;28;20052;-83
2023/10/04 01:18:00;;;;;;;3.55;1.30;;;;;;;;;;5014918;28;20447;-83
2023/10/04 01:20:28;;;;;;;7.30;1.23;;;;;;;;;;5010868;28;20050;-84
2023/10/04 01:23:00;;;;;;;3.72;1.08;;;;;;;;;;5046414;28;20049;-85
2023/10/04 01:25:31;;;;;;;4.05;1.20;;;;;;;;;;5034104;28;20521;-82
2023/10/04 01:27:59;;;;;;;4.30;1.25;;;;;;;;;;5055960;28;20128;-83
2023/10/04 01:30:29;;;;;;;4.90;1.08;;;;;;;;;;5034982;28;20041;-83
2023/10/04 01:33:00;;;;;;;2.58;1.30;;;;;;;;;;5034558;28;20503;-81
2023/10/04 01:35:28;;;;;;;3.10;1.20;;;;;;;;;;5014641;28;20041;-84
2023/10/04 01:37:54;;;;;;;3.35;1.15;;;;;;;;;;5034629;28;20053;-83
2023/10/04 01:40:35;;;;;;;5.28;1.33;;;;;;;;;;5046292;28;20194;-82
2023/10/04 01:43:14;;;;;;;3.70;1.20;;;;;;;;;;5053398;28;20053;-83
2023/10/04 01:45:45;;;;;;;3.38;1.27;;;;;;;;;;5051416;28;20405;-83
2023/10/04 01:48:15;;;;;;;2.55;1.30;;;;;;;;;;5041766;28;20611;-84
2023/10/04 01:50:42;;;;;;;3.20;1.15;;;;;;;;;;5030517;28;20045;-83
2023/10/04 01:53:09;;;;;;;4.65;1.40;;;;;;;;;;5038154;28;20045;-85
2023/10/04 01:55:36;;;;;;;6.07;1.58;;;;;;;;;;5030599;28;20048;-83
2023/10/04 01:58:04;;;;;;;4.60;1.58;;;;;;;;;;5011660;28;20429;-85
2023/10/04 02:00:30;;;;;;;2.85;1.13;;;;;;;;;;5010525;28;20550;-83
2023/10/04 02:02:57;;;;;;;5.00;1.42;;;;;;;;;;4994177;28;20106;-84
2023/10/04 02:05:33;;;;;;;4.88;1.77;;;;;;;;;;4993726;28;20052;-84
2023/10/04 02:08:04;;;;;;;3.97;1.65;;;;;;;;;;4994734;28;20104;-81
2023/10/04 02:10:31;;;;;;;3.28;1.70;;;;;;;;;;5006000;28;20045;-83
2023/10/04 02:12:57;;;;;;;3.25;1.33;;;;;;;;;;5012565;28;20054;-83
2023/10/04 02:15:24;;;;;;;3.75;1.38;;;;;;;;;;5013011;28;20048;-82
2023/10/04 02:18:01;;;;;;;5.85;1.42;;;;;;;;;;5022265;28;20057;-82
2023/10/04 02:20:31;;;;;;;3.03;1.25;;;;;;;;;;5054920;28;20045;-83
2023/10/04 02:22:58;;;;;;;8.57;1.60;;;;;;;;;;5045823;28;20041;-86
2023/10/04 02:25:25;;;;;;;2.83;1.27;;;;;;;;;;5032462;28;20135;-82
2023/10/04 02:27:52;;;;;;;2.38;1.25;;;;;;;;;;5031666;28;20068;-87
2023/10/04 02:30:22;;;;;;;4.88;1.27;;;;;;;;;;5014130;28;20065;-85
2023/10/04 02:32:52;;;;;;;5.00;1.35;;;;;;;;;;5037068;28;20072;-87
2023/10/04 02:35:41;;;;;;;3.25;1.13;;;;;;;;;;5036502;28;20128;-86
2023/10/04 02:38:16;;;;;;;5.10;1.48;;;;;;;;;;4999091;28;21522;-86
2023/10/04 02:40:43;;;;;;;7.57;1.60;;;;;;;;;;5015110;28;20042;-85
2023/10/04 02:43:10;;;;;;;3.25;1.17;;;;;;;;;;4998422;28;20042;-85
2023/10/04 02:45:37;;;;;;;2.60;1.23;;;;;;;;;;5036014;28;20120;-86
2023/10/04 02:48:04;;;;;;;3.33;1.20;;;;;;;;;;5011698;28;20045;-85
2023/10/04 02:50:31;;;;;;;3.55;1.20;;;;;;;;;;5017185;28;20041;-84
2023/10/04 02:52:58;;;;;;;4.68;1.52;;;;;;;;;;5013988;28;20092;-85
2023/10/04 02:55:27;;;;;;;3.25;1.20;;;;;;;;;;4994719;28;20046;-84
2023/10/04 02:57:55;;;;;;;3.70;1.40;;;;;;;;;;5028143;28;20125;-85
2023/10/04 03:00:23;;;;;;;1.63;0.80;;;;;;;;;;5025746;28;20051;-85
2023/10/04 03:02:53;;;;;;;3.15;1.23;;;;;;;;;;5042204;28;20040;-86
2023/10/04 03:05:29;;;;;;;4.40;1.23;;;;;;;;;;5026210;28;20133;-86
2023/10/04 03:08:06;;;;;;;4.38;1.15;;;;;;;;;;5036989;28;20053;-85
2023/10/04 03:10:34;;;;;;;2.42;1.00;;;;;;;;;;5018491;28;20044;-84
2023/10/04 03:13:11;;;;;;;4.22;1.45;;;;;;;;;;5053488;28;20380;-84
2023/10/04 03:15:39;;;;;;;4.13;1.20;;;;;;;;;;5037133;28;20357;-85
2023/10/04 03:18:17;;;;;;;2.45;1.10;;;;;;;;;;5012874;28;20090;-84
2023/10/04 03:21:30;;;;;;;2.75;1.27;;;;;;;;;;5041887;28;20065;-85
2023/10/04 03:23:42;;;;;;;3.75;1.30;;;;;;;;;;5027357;28;20079;-84
2023/10/04 03:26:14;;;;;;;1.83;1.13;;;;;;;;;;5043432;28;20518;-84
2023/10/04 03:28:47;;;;;;;3.10;1.23;;;;;;;;;;5050199;28;20105;-84
2023/10/04 03:31:14;;;;;;;3.95;1.35;;;;;;;;;;5058418;28;20045;-84
2023/10/04 03:33:46;;;;;;;3.75;1.35;;;;;;;;;;5044250;28;20092;-85
2023/10/04 03:36:18;;;;;;;7.68;1.83;;;;;;;;;;5036354;28;20367;-85
2023/10/04 03:38:50;;;;;;;4.32;1.30;;;;;;;;;;5045262;28;20041;-83
2023/10/04 03:41:24;;;;;;;3.45;1.60;;;;;;;;;;5033826;28;20049;-85
2023/10/04 03:43:57;;;;;;;4.72;1.30;;;;;;;;;;5038291;28;20121;-83
2023/10/04 03:46:24;;;;;;;5.10;1.30;;;;;;;;;;5035575;28;20068;-84
2023/10/04 03:48:56;;;;;;;3.03;1.52;;;;;;;;;;5037992;28;20105;-82
2023/10/04 03:51:23;;;;;;;3.45;1.38;;;;;;;;;;5056392;28;20045;-83
2023/10/04 03:53:54;;;;;;;2.92;1.52;;;;;;;;;;5019443;28;20530;-83
2023/10/04 03:56:25;;;;;;;2.83;1.40;;;;;;;;;;5031291;28;20389;-83
2023/10/04 03:58:57;;;;;;;6.57;1.63;;;;;;;;;;5017104;28;20143;-85
2023/10/04 04:01:26;;;;;;;3.83;1.70;;;;;;;;;;5032405;28;20417;-84
2023/10/04 04:03:53;;;;;;;6.18;2.03;;;;;;;;;;5030271;28;20052;-84
2023/10/04 04:06:20;;;;;;;6.88;2.20;;;;;;;;;;5032099;28;20310;-84
2023/10/04 04:08:47;;;;;;;3.70;1.88;;;;;;;;;;5036086;28;20042;-86
2023/10/04 04:11:14;;;;;;;4.03;1.90;;;;;;;;;;5037605;28;20052;-86
2023/10/04 04:13:42;;;;;;;8.85;2.20;;;;;;;;;;5027493;28;20128;-84
2023/10/04 04:16:12;;;;;;;6.82;2.38;;;;;;;;;;5028559;28;20052;-84
2023/10/04 04:18:40;;;;;;;4.45;2.03;;;;;;;;;;5015173;28;20105;-83
2023/10/04 04:21:07;;;;;;;4.28;2.00;;;;;;;;;;5027828;28;20156;-82
2023/10/04 04:23:35;;;;;;;4.93;2.13;;;;;;;;;;5034514;28;20427;-85
2023/10/04 04:26:05;;;;;;;3.75;2.00;;;;;;;;;;5030713;28;20470;-84
2023/10/04 04:28:36;;;;;;;4.93;1.65;;;;;;;;;;5030756;28;20038;-85
2023/10/04 04:31:14;;;;;;;5.25;1.92;;;;;;;;;;5027671;28;20053;-85
2023/10/04 04:33:41;;;;;;;6.47;2.28;;;;;;;;;;5010632;28;20041;-83
2023/10/04 04:36:20;;;;;;;6.25;2.10;;;;;;;;;;5010325;28;20037;-86
2023/10/04 04:38:48;;;;;;;6.47;1.90;;;;;;;;;;5031756;28;20029;-84
2023/10/04 04:41:20;;;;;;;8.15;2.47;;;;;;;;;;5028409;28;20041;-84
2023/10/04 04:43:49;;;;;;;4.25;2.00;;;;;;;;;;5035071;28;20045;-83
2023/10/04 04:46:18;;;;;;;5.13;1.70;;;;;;;;;;5028402;28;20201;-85
2023/10/04 04:48:46;;;;;;;6.20;2.17;;;;;;;;;;5027417;28;20527;-84
2023/10/04 04:51:18;;;;;;;5.90;2.05;;;;;;;;;;5030758;28;20061;-83
2023/10/04 04:53:47;;;;;;;4.82;1.85;;;;;;;;;;5015837;28;20049;-82
2023/10/04 04:56:18;;;;;;;6.63;1.90;;;;;;;;;;5033610;28;20064;-85
2023/10/04 04:58:48;;;;;;;6.70;1.90;;;;;;;;;;5011524;28;20068;-84
2023/10/04 05:01:16;;;;;;;5.55;2.28;;;;;;;;;;5030132;28;20053;-82
2023/10/04 05:03:50;;;;;;;5.78;1.90;;;;;;;;;;5033529;28;20124;-85
2023/10/04 05:06:22;;;;;;;3.67;1.90;;;;;;;;;;5030556;28;20419;-86
2023/10/04 05:08:50;;;;;;;7.38;2.10;;;;;;;;;;5027762;28;20072;-85
2023/10/04 05:11:17;;;;;;;5.07;2.10;;;;;;;;;;5031164;28;20075;-85
2023/10/04 05:13:45;;;;;;;4.10;2.20;;;;;;;;;;5034369;28;20068;-85
2023/10/04 05:16:11;;;;;;;4.93;1.90;;;;;;;;;;5031795;28;20065;-85
2023/10/04 05:18:38;;;;;;;5.28;2.42;;;;;;;;;;5051370;28;20038;-86
2023/10/04 05:21:05;;;;;;;6.65;2.45;;;;;;;;;;5034276;28;20045;-86
2023/10/04 05:23:32;;;;;;;5.95;2.33;;;;;;;;;;5030159;28;20054;-83
2023/10/04 05:26:02;;;;;;;6.75;2.47;;;;;;;;;;5032653;28;20041;-84
2023/10/04 05:28:29;;;;;;;6.55;2.20;;;;;;;;;;5035572;28;21274;-84
2023/10/04 05:30:56;;;;;;;4.65;2.40;;;;;;;;;;5035769;28;20068;-85
2023/10/04 05:33:23;;;;;;;8.48;2.65;;;;;;;;;;5038683;28;20046;-85
2023/10/04 05:35:53;;;;;;;4.85;2.60;;;;;;;;;;5025805;28;20250;-84
2023/10/04 05:38:21;;;;;;;5.75;2.53;;;;;;;;;;5031817;28;20056;-85
2023/10/04 05:40:47;;;;;;;6.05;2.15;;;;;;;;;;5037338;28;20045;-84
2023/10/04 05:43:14;;;;;;;5.55;2.38;;;;;;;;;;5040458;28;20136;-86
2023/10/04 05:45:44;;;;;;;5.85;2.17;;;;;;;;;;5032655;28;20059;-84
2023/10/04 05:48:11;;;;;;;6.20;2.50;;;;;;;;;;5034006;28;20041;-85
2023/10/04 05:50:39;;;;;;;7.28;2.88;;;;;;;;;;5034682;28;20072;-84
2023/10/04 05:53:06;;;;;;;4.75;2.17;;;;;;;;;;5032009;28;20042;-86
2023/10/04 05:55:37;;;;;;;5.35;2.15;;;;;;;;;;5034770;28;20128;-84
2023/10/04 05:58:07;;;;;;;5.43;2.70;;;;;;;;;;5034615;28;20119;-85
2023/10/04 06:00:35;;;;;;;7.70;2.45;;;;;;;;;;5030627;28;20037;-82
2023/10/04 06:03:06;;;;;;;4.50;2.30;;;;;;;;;;5030635;28;20053;-83
2023/10/04 06:05:37;;;;;;;7.22;2.53;;;;;;;;;;5034262;28;21012;-84
2023/10/04 06:08:06;;;;;;;6.07;3.22;;;;;;;;;;5010485;28;21005;-86
2023/10/04 06:10:33;;;;;;;8.75;2.83;;;;;;;;;;4973571;28;20042;-83
2023/10/04 06:12:59;;;;;;;8.65;2.65;;;;;;;;;;5019374;28;20041;-84
2023/10/04 06:15:26;;;;;;;7.53;2.92;;;;;;;;;;5032463;28;20057;-85
2023/10/04 06:17:53;;;;;;;8.27;2.92;;;;;;;;;;5035841;28;20060;-86
2023/10/04 06:20:33;;;;;;;7.47;2.70;;;;;;;;;;5034269;28;20048;-86
2023/10/04 06:23:05;;;;;;;5.60;2.83;;;;;;;;;;5033740;28;20171;-86
2023/10/04 06:25:34;;;;;;;8.43;3.15;;;;;;;;;;5031417;28;20056;-84
2023/10/04 06:28:03;;;;;;;6.72;3.17;;;;;;;;;;5030240;28;20252;-86
2023/10/04 06:30:31;;;;;;;7.35;2.70;;;;;;;;;;5012272;28;20054;-85
2023/10/04 06:32:59;;;;;;;7.28;2.55;;;;;;;;;;5015957;28;20057;-85
2023/10/04 06:35:27;;;;;;;6.07;2.67;;;;;;;;;;4993849;28;20112;-85
2023/10/04 06:37:57;;;;;;;6.03;2.88;;;;;;;;;;5010307;28;20042;-85
2023/10/04 06:40:24;;;;;;;6.75;2.90;;;;;;;;;;5020905;28;20065;-86
2023/10/04 06:42:52;;;;;;;7.80;2.88;;;;;;;;;;5011357;28;20038;-85
2023/10/04 06:45:20;;;;;;;8.00;2.58;;;;;;;;;;5010905;28;20523;-85
2023/10/04 06:47:47;;;;;;;4.63;2.40;;;;;;;;;;5012441;28;20148;-85
2023/10/04 06:50:15;;;;;;;6.05;2.65;;;;;;;;;;5013424;28;20451;-85
2023/10/04 06:52:42;;;;;;;6.90;2.97;;;;;;;;;;5009800;28;20064;-85
2023/10/04 06:55:11;;;;;;;6.00;2.53;;;;;;;;;;5016353;28;20068;-86
2023/10/04 06:57:39;;;;;;;5.38;2.35;;;;;;;;;;5022746;28;20105;-83
2023/10/04 07:00:13;;;;;;;6.68;2.80;;;;;;;;;;5010609;28;20042;-85
2023/10/04 07:02:59;;;;;;;4.03;2.15;;;;;;;;;;4993762;28;20729;-85
2023/10/04 07:05:32;;;;;;;6.25;2.53;;;;;;;;;;5035705;28;20058;-86
2023/10/04 07:07:59;;;;;;;6.07;2.30;;;;;;;;;;5018196;28;20061;-84
2023/10/04 07:10:26;;;;;;;7.28;2.47;;;;;;;;;;5009157;28;20112;-85
2023/10/04 07:12:54;;;;;;;4.78;2.22;;;;;;;;;;5011355;28;20141;-84
2023/10/04 07:15:21;;;;;;;7.10;2.53;;;;;;;;;;5006805;28;20125;-85
2023/10/04 07:17:48;;;;;;;6.78;2.60;;;;;;;;;;5020641;28;20101;-83
2023/10/04 07:20:16;;;;;;;5.57;2.30;;;;;;;;;;5044879;28;20064;-85
2023/10/04 07:22:44;;;;;;;6.10;2.45;;;;;;;;;;5012871;28;20046;-83
2023/10/04 07:25:12;;;;;;;6.70;2.38;;;;;;;;;;5020327;28;20041;-83
2023/10/04 07:27:40;;;;;;;6.60;2.53;;;;;;;;;;5012206;28;20089;-83
2023/10/04 07:30:07;;;;;;;3.85;1.98;;;;;;;;;;5058805;28;20464;-84
2023/10/04 07:32:34;;;;;;;6.50;2.50;;;;;;;;;;5029528;28;20099;-82
2023/10/04 07:35:01;;;;;;;6.03;2.20;;;;;;;;;;5039423;28;20049;-82
2023/10/04 07:37:27;;;;;;;6.57;2.05;;;;;;;;;;5031892;28;20049;-83
2023/10/04 07:39:54;;;;;;;6.45;2.20;;;;;;;;;;5032560;28;20061;-83
2023/10/04 07:42:21;;;;;;;4.53;2.10;;;;;;;;;;5042110;28;20087;-84
2023/10/04 07:44:48;;;;;;;5.28;2.30;;;;;;;;;;5038422;28;20415;-85
2023/10/04 07:47:15;;;;;;;6.60;2.17;;;;;;;;;;5031002;28;20057;-81
2023/10/04 07:49:41;;;;;;;4.60;1.80;;;;;;;;;;5032577;28;20562;-82
2023/10/04 07:52:08;;;;;;;7.70;1.80;;;;;;;;;;5032102;28;20049;-83
2023/10/04 07:54:35;;;;;;;5.93;1.98;;;;;;;;;;5027782;28;20054;-82
2023/10/04 07:57:03;;;;;;;4.45;1.98;;;;;;;;;;5045412;28;20056;-81
2023/10/04 07:59:33;;;;;;;5.65;1.80;;;;;;;;;;5060288;28;20420;-83
2023/10/04 08:02:00;;;;;;;4.57;1.90;;;;;;;;;;5027703;28;20064;-84
2023/10/04 08:04:26;;;;;;;4.53;2.00;;;;;;;;;;5016977;28;20065;-82
2023/10/04 08:06:53;;;;;;;5.65;2.28;;;;;;;;;;5011229;28;20393;-84
2023/10/04 08:09:21;;;;;;;5.70;1.83;;;;;;;;;;5038340;28;20050;-84
2023/10/04 08:11:49;;;;;;;7.13;1.85;;;;;;;;;;5011646;28;20042;-81
2023/10/04 08:14:16;;;;;;;4.80;2.08;;;;;;;;;;5011799;28;20092;-83
2023/10/04 08:16:44;;;;;;;5.90;1.80;;;;;;;;;;5011824;28;20045;-82
2023/10/04 08:19:13;;;;;;;4.45;2.00;;;;;;;;;;5017087;28;20228;-82
2023/10/04 08:21:40;;;;;;;5.00;1.73;;;;;;;;;;5020738;28;20045;-83
2023/10/04 08:24:09;;;;;;;6.20;1.70;;;;;;;;;;5049184;28;20104;-83
2023/10/04 08:26:37;;;;;;;5.78;1.77;;;;;;;;;;5028559;28;20475;-85
2023/10/04 08:29:05;;;;;;;5.43;2.15;;;;;;;;;;5013795;28;20060;-84
2023/10/04 08:31:33;;;;;;;3.90;1.70;;;;;;;;;;4976453;28;20503;-83
2023/10/04 08:34:00;;;;;;;7.15;2.03;;;;;;;;;;5012301;28;20060;-83
2023/10/04 08:36:26;;;;;;;4.13;1.88;;;;;;;;;;5029347;28;20046;-82
2023/10/04 08:38:53;;;;;;;5.68;1.80;;;;;;;;;;5017758;28;20038;-84
2023/10/04 08:41:22;;;;;;;5.97;2.20;;;;;;;;;;5014526;28;20049;-84
2023/10/04 08:43:49;;;;;;;4.55;1.70;;;;;;;;;;5027664;28;20146;-81
2023/10/04 08:46:18;;;;;;;5.10;2.00;;;;;;;;;;5021401;28;20520;-83
2023/10/04 08:48:52;;;;;;;4.70;2.10;;;;;;;;;;5022413;28;20045;-82
2023/10/04 08:51:28;;;;;;;5.03;1.90;;;;;;;;;;5031311;28;20092;-82
2023/10/04 08:53:57;;;;;;;4.43;1.77;;;;;;;;;;5033467;28;20072;-85
2023/10/04 08:56:27;;;;;;;5.13;1.60;;;;;;;;;;5026644;28;20072;-82
2023/10/04 08:58:55;;;;;;;5.70;1.80;;;;;;;;;;5020149;28;20092;-82
2023/10/04 09:01:22;;;;;;;6.13;2.85;;;;;;;;;;5038220;28;20104;-84
2023/10/04 09:03:50;;;;;;;3.67;1.65;;;;;;;;;;5031180;28;20033;-81
2023/10/04 09:06:17;;;;;;;5.00;1.90;;;;;;;;;;5034614;28;20328;-82
2023/10/04 09:08:44;;;;;;;4.60;1.80;;;;;;;;;;5030908;28;20397;-82
2023/10/04 09:11:11;;;;;;;4.97;2.10;;;;;;;;;;5029220;28;20037;-82
2023/10/04 09:13:44;;;;;;;3.67;1.60;;;;;;;;;;5029443;28;20053;-83
2023/10/04 09:16:26;;;;;;;6.65;1.45;;;;;;;;;;5033209;28;20514;-83
2023/10/04 09:19:03;;;;;;;5.50;2.00;;;;;;;;;;5022200;28;20594;-82
2023/10/04 09:21:30;;;;;;;5.47;1.70;;;;;;;;;;5020027;28;20046;-81
2023/10/04 09:24:07;;;;;;;3.65;1.42;;;;;;;;;;5029579;28;20119;-83
2023/10/04 09:26:49;;;;;;;4.93;1.60;;;;;;;;;;5016202;28;20042;-82
2023/10/04 09:29:27;;;;;;;3.40;1.55;;;;;;;;;;5012398;28;20038;-83
2023/10/04 09:31:55;;;;;;;4.05;1.55;;;;;;;;;;5013135;28;20794;-82
2023/10/04 09:34:24;;;;;;;6.93;2.10;;;;;;;;;;5016358;28;20042;-83
2023/10/04 09:36:52;;;;;;;2.88;1.45;;;;;;;;;;5014154;28;21477;-83
2023/10/04 09:39:24;;;;;;;3.72;1.58;;;;;;;;;;5016465;28;20050;-85
2023/10/04 09:41:51;;;;;;;7.38;1.65;;;;;;;;;;5013052;28;20041;-85
2023/10/04 09:44:21;;;;;;;3.78;1.63;;;;;;;;;;5014340;28;20128;-83
2023/10/04 09:46:54;;;;;;;3.38;1.23;;;;;;;;;;5025969;28;20065;-83
2023/10/04 09:49:21;;;;;;;3.92;1.52;;;;;;;;;;5027655;28;20041;-82
2023/10/04 09:51:48;;;;;;;5.18;1.30;;;;;;;;;;5038649;28;20530;-83
2023/10/04 09:54:18;;;;;;;3.72;1.48;;;;;;;;;;5034154;28;20049;-82
2023/10/04 09:56:47;;;;;;;3.40;1.38;;;;;;;;;;5031758;28;20427;-81
2023/10/04 09:59:15;;;;;;;4.50;1.50;;;;;;;;;;5028547;28;20046;-82
2023/10/04 10:01:43;;;;;;;6.70;1.55;;;;;;;;;;5012662;28;20042;-81
2023/10/04 10:04:16;;;;;;;2.42;1.13;;;;;;;;;;5015178;28;20796;-82
2023/10/04 10:06:56;;;;;;;3.38;1.60;;;;;;;;;;5013474;28;20042;-82
2023/10/04 10:09:23;;;;;;;3.50;1.27;;;;;;;;;;5028522;28;20046;-82
2023/10/04 10:11:52;;;;;;;4.28;1.50;;;;;;;;;;5022612;28;20060;-82
2023/10/04 10:14:22;;;;;;;4.30;1.38;;;;;;;;;;5031302;28;20042;-81
2023/10/04 10:16:54;;;;;;;3.03;1.20;;;;;;;;;;5031620;28;20141;-81
2023/10/04 10:19:24;;;;;;;2.58;1.25;;;;;;;;;;5052240;28;20053;-82
2023/10/04 10:22:10;;;;;;;6.20;2.00;;;;;;;;;;5031976;28;20193;-83
2023/10/04 10:24:36;;;;;;;;;;;;;;;;;;5017769;28;20052;-83
2023/10/04 10:27:04;;;;;;;3.25;1.30;;;;;;;;;;5022273;28;19921;-83
2023/10/04 10:29:31;;;;;;;2.45;1.10;;;;;;;;;;5019187;28;20155;-82
2023/10/04 10:32:00;;;;;;;6.13;1.20;;;;;;;;;;5011527;28;20466;-83
2023/10/04 10:34:27;;;;;;;3.55;1.30;;;;;;;;;;5017900;28;20699;-84
2023/10/04 10:37:14;;;;;;;8.25;1.92;;;;;;;;;;5021327;28;20046;-82
2023/10/04 10:39:42;;;;;;;5.25;1.35;;;;;;;;;;5028634;28;20266;-85
2023/10/04 10:42:11;;;;;;;4.13;1.40;;;;;;;;;;5017031;28;20044;-83
2023/10/04 10:44:39;;;;;;;6.53;1.30;;;;;;;;;;5016748;28;20069;-82
2023/10/04 10:47:09;;;;;;;4.38;1.30;;;;;;;;;;5013785;28;20038;-82
2023/10/04 10:49:42;;;;;;;4.53;1.42;;;;;;;;;;5007845;28;20030;-83
2023/10/04 10:52:09;;;;;;;4.80;1.60;;;;;;;;;;5011011;28;20170;-81
2023/10/04 10:54:36;;;;;;;5.20;1.58;;;;;;;;;;5012109;28;20069;-83
2023/10/04 10:57:05;;;;;;;4.95;1.55;;;;;;;;;;5021563;28;20123;-84
2023/10/04 10:59:33;;;;;;;5.75;1.17;;;;;;;;;;5015657;28;20136;-82
2023/10/04 11:01:59;;;;;;;4.80;1.40;;;;;;;;;;5010241;28;20106;-81
2023/10/04 11:04:26;;;;;;;2.22;1.23;;;;;;;;;;5010715;28;20042;-84
2023/10/04 11:06:53;;;;;;;3.03;1.45;;;;;;;;;;5013763;28;20042;-84
2023/10/04 11:09:20;;;;;;;4.53;1.20;;;;;;;;;;5022069;28;20475;-83
2023/10/04 11:12:07;;;;;;;3.92;1.30;;;;;;;;;;5018539;28;20506;-81
2023/10/04 11:14:36;;;;;;;4.75;1.55;;;;;;;;;;5018138;28;20044;-82
2023/10/04 11:17:06;;;;;;;5.15;1.27;;;;;;;;;;5033723;28;20129;-84
2023/10/04 11:19:34;;;;;;;2.95;1.13;;;;;;;;;;5029991;28;20504;-83
2023/10/04 11:22:02;;;;;;;5.40;1.20;;;;;;;;;;5029206;28;20037;-84
2023/10/04 11:24:34;;;;;;;8.30;1.48;;;;;;;;;;5030536;28;20384;-83
2023/10/04 11:27:01;;;;;;;5.88;1.50;;;;;;;;;;5034730;28;20847;-85
2023/10/04 11:29:29;;;;;;;4.35;1.33;;;;;;;;;;4997980;28;20141;-82
2023/10/04 11:31:56;;;;;;;3.40;1.13;;;;;;;;;;5026220;28;20338;-84
2023/10/04 11:34:23;;;;;;;4.65;1.50;;;;;;;;;;4996060;28;20073;-84
2023/10/04 11:36:50;;;;;;;3.75;1.38;;;;;;;;;;5013173;28;20342;-83
2023/10/04 11:39:19;;;;;;;6.45;1.48;;;;;;;;;;5025381;28;20042;-84
2023/10/04 11:41:46;;;;;;;8.98;1.52;;;;;;;;;;5015367;28;20034;-83
2023/10/04 11:44:16;;;;;;;4.00;1.33;;;;;;;;;;5017862;28;20045;-84
2023/10/04 11:46:53;;;;;;;7.10;1.30;;;;;;;;;;5015611;28;20029;-83
2023/10/04 11:49:21;;;;;;;5.47;1.30;;;;;;;;;;5014549;28;20046;-84
2023/10/04 11:51:53;;;;;;;3.30;1.20;;;;;;;;;;5054870;28;20065;-83
2023/10/04 11:54:20;;;;;;;3.90;1.35;;;;;;;;;;5010132;28;20456;-84
2023/10/04 11:56:47;;;;;;;3.50;1.17;;;;;;;;;;5007206;28;20045;-84
2023/10/04 11:59:13;;;;;;;3.70;1.50;;;;;;;;;;5012588;28;20646;-84
2023/10/04 12:01:47;;;;;;;3.90;1.27;;;;;;;;;;5010537;28;20042;-83
2023/10/04 12:04:14;;;;;;;4.32;1.40;;;;;;;;;;5010880;28;20427;-83
2023/10/04 12:06:42;;;;;;;4.97;1.65;;;;;;;;;;4998402;28;20416;-85
2023/10/04 12:09:08;;;;;;;4.35;1.48;;;;;;;;;;5010726;28;20149;-84
2023/10/04 12:11:36;;;;;;;4.22;1.50;;;;;;;;;;5011298;28;21230;-82
2023/10/04 12:14:04;;;;;;;4.82;1.55;;;;;;;;;;5014217;28;20049;-79
2023/10/04 12:16:33;;;;;;;6.00;1.42;;;;;;;;;;5015552;28;20049;-83
2023/10/04 12:19:00;;;;;;;3.38;1.30;;;;;;;;;;5023294;28;20137;-82
2023/10/04 12:21:27;;;;;;;3.90;1.48;;;;;;;;;;5015907;28;20075;-83
2023/10/04 12:23:54;;;;;;;4.82;1.40;;;;;;;;;;5011249;28;20092;-83
2023/10/04 12:26:22;;;;;;;3.40;1.42;;;;;;;;;;5032583;28;20080;-82
2023/10/04 12:28:50;;;;;;;3.28;1.38;;;;;;;;;;5011409;28;20096;-82
2023/10/04 12:31:17;;;;;;;2.63;1.30;;;;;;;;;;5009409;28;20049;-83
2023/10/04 12:33:46;;;;;;;4.15;1.30;;;;;;;;;;5007126;28;20048;-81
2023/10/04 12:36:13;;;;;;;4.07;1.17;;;;;;;;;;5009783;28;20046;-83
2023/10/04 12:38:39;;;;;;;3.60;1.35;;;;;;;;;;5040830;28;20226;-83
2023/10/04 12:41:06;;;;;;;3.92;1.48;;;;;;;;;;5029016;28;20512;-84
2023/10/04 12:43:33;;;;;;;5.88;1.25;;;;;;;;;;5036009;28;20065;-80
2023/10/04 12:46:00;;;;;;;3.55;1.23;;;;;;;;;;5035009;28;20068;-81
2023/10/04 12:48:28;;;;;;;2.53;1.38;;;;;;;;;;5033714;28;20049;-84
2023/10/04 12:50:55;;;;;;;6.47;1.40;;;;;;;;;;5035159;28;20038;-82
2023/10/04 12:53:22;;;;;;;6.28;1.45;;;;;;;;;;5043770;28;20459;-81
2023/10/04 12:55:50;;;;;;;5.50;1.30;;;;;;;;;;5043177;28;20041;-81
2023/10/04 12:58:20;;;;;;;4.35;1.35;;;;;;;;;;5033463;28;20076;-84
2023/10/04 13:00:49;;;;;;;4.75;1.42;;;;;;;;;;5038375;28;20395;-82
2023/10/04 13:03:17;;;;;;;5.00;1.52;;;;;;;;;;5035687;28;20045;-83
2023/10/04 13:05:43;;;;;;;4.20;1.20;;;;;;;;;;5041564;28;20119;-82
2023/10/04 13:08:20;;;;;;;4.95;1.30;;;;;;;;;;5032418;28;20510;-80
2023/10/04 13:10:47;;;;;;;4.65;1.38;;;;;;;;;;5032598;28;20069;-81
2023/10/04 13:13:14;;;;;;;6.53;1.40;;;;;;;;;;5009929;28;20045;-81
2023/10/04 13:15:41;;;;;;;3.58;1.35;;;;;;;;;;5024959;28;20080;-84
2023/10/04 13:18:11;;;;;;;3.33;1.20;;;;;;;;;;5020008;28;20042;-81
2023/10/04 13:20:38;;;;;;;4.80;1.33;;;;;;;;;;5008874;28;20183;-81
2023/10/04 13:23:05;;;;;;;4.00;1.17;;;;;;;;;;5036679;28;20046;-82
2023/10/04 13:25:33;;;;;;;3.58;1.08;;;;;;;;;;5015888;28;20103;-82
2023/10/04 13:28:00;;;;;;;3.90;1.42;;;;;;;;;;5013858;28;20484;-82
2023/10/04 13:30:27;;;;;;;3.22;1.52;;;;;;;;;;5020516;28;20057;-81
2023/10/04 13:32:56;;;;;;;3.47;1.20;;;;;;;;;;5016439;28;20057;-82
2023/10/04 13:35:23;;;;;;;3.65;1.38;;;;;;;;;;5014810;28;20054;-81
2023/10/04 13:37:53;;;;;;;3.55;1.23;;;;;;;;;;5016038;28;20445;-81
2023/10/04 13:40:20;;;;;;;4.03;1.25;;;;;;;;;;5014316;28;20365;-82
2023/10/04 13:42:53;;;;;;;4.03;1.45;;;;;;;;;;5011529;28;20041;-80
2023/10/04 13:45:24;;;;;;;5.28;1.10;;;;;;;;;;5013495;28;20065;-82
2023/10/04 13:47:51;;;;;;;2.55;1.23;;;;;;;;;;5019653;28;20124;-82
2023/10/04 13:50:22;;;;;;;3.60;1.02;;;;;;;;;;5020615;28;20076;-81
2023/10/04 13:52:50;;;;;;;5.20;1.63;;;;;;;;;;5019252;28;20522;-80
2023/10/04 13:55:20;;;;;;;5.07;1.48;;;;;;;;;;5021248;28;20398;-80
2023/10/04 13:57:46;;;;;;;6.95;1.48;;;;;;;;;;5017852;28;20116;-82
2023/10/04 14:00:22;;;;;;;2.42;1.10;;;;;;;;;;5018070;28;20145;-82
2023/10/04 14:02:50;;;;;;;3.55;1.10;;;;;;;;;;5014591;28;21574;-84
2023/10/04 14:05:19;;;;;;;5.68;1.52;;;;;;;;;;5011841;28;20046;-79
2023/10/04 14:07:51;;;;;;;3.20;1.25;;;;;;;;;;5044419;28;20216;-82
2023/10/04 14:10:22;;;;;;;6.13;1.60;;;;;;;;;;5036313;28;20041;-83
2023/10/04 14:12:52;;;;;;;4.85;1.63;;;;;;;;;;5035600;28;20633;-81
2023/10/04 14:15:24;;;;;;;2.95;0.88;;;;;;;;;;5029175;28;21092;-83
2023/10/04 14:17:52;;;;;;;6.65;1.25;;;;;;;;;;5031750;28;20421;-81
2023/10/04 14:20:20;;;;;;;2.33;1.05;;;;;;;;;;5028304;28;20492;-82
2023/10/04 14:22:48;;;;;;;5.05;1.40;;;;;;;;;;5018221;28;20435;-83
2023/10/04 14:25:15;;;;;;;3.03;1.00;;;;;;;;;;5019727;28;20457;-81
2023/10/04 14:27:43;;;;;;;4.80;1.38;;;;;;;;;;5024700;28;20052;-83
2023/10/04 14:30:21;;;;;;;3.38;1.27;;;;;;;;;;5048572;28;20065;-84
2023/10/04 14:32:48;;;;;;;3.70;1.40;;;;;;;;;;5012058;28;20050;-84
2023/10/04 14:35:15;;;;;;;3.60;1.42;;;;;;;;;;5017796;28;20046;-81
2023/10/04 14:37:43;;;;;;;3.88;1.42;;;;;;;;;;5025847;28;20041;-82
2023/10/04 14:40:14;;;;;;;3.50;1.42;;;;;;;;;;5032754;28;20440;-83
2023/10/04 14:42:41;;;;;;;4.05;1.30;;;;;;;;;;5029830;28;20041;-83
2023/10/04 14:45:08;;;;;;;5.35;1.48;;;;;;;;;;5036731;28;20088;-83
2023/10/04 14:47:35;;;;;;;6.32;1.30;;;;;;;;;;5031948;28;20041;-82
2023/10/04 14:50:08;;;;;;;3.03;1.25;;;;;;;;;;5032080;28;20079;-82
2023/10/04 14:52:36;;;;;;;4.10;1.42;;;;;;;;;;5029878;28;20038;-81
2023/10/04 14:55:06;;;;;;;4.70;1.42;;;;;;;;;;5033600;28;20048;-82